createdAt,value
2019-05-28T00:02:04.552Z,17.80
2019-05-28T00:04:42.462Z,21.70
2019-05-28T00:07:21.625Z,19.00
2019-05-28T00:09:58.752Z,19.40
2019-05-28T00:12:35.855Z,19.03
2019-05-28T00:15:16.109Z,18.57
2019-05-28T00:17:54.055Z,19.53
2019-05-28T00:20:31.150Z,22.80
2019-05-28T00:23:08.293Z,21.97
2019-05-28T00:25:45.592Z,25.57
2019-05-28T00:28:22.704Z,25.60
2019-05-28T00:31:01.461Z,22.33
2019-05-28T00:33:38.552Z,22.47
2019-05-28T00:36:15.645Z,22.83
2019-05-28T00:38:54.434Z,22.83
2019-05-28T00:41:31.552Z,23.10
2019-05-28T00:44:08.657Z,22.20
2019-05-28T00:46:45.784Z,22.87
2019-05-28T00:49:22.911Z,22.30
2019-05-28T00:52:00.035Z,24.40
2019-05-28T00:54:37.339Z,21.77
2019-05-28T00:57:14.975Z,24.13
2019-05-28T00:59:52.111Z,22.87
2019-05-28T01:02:29.234Z,21.37
2019-05-28T01:05:06.861Z,21.03
2019-05-28T01:07:43.951Z,23.27
2019-05-28T01:10:21.074Z,24.13
2019-05-28T01:12:58.175Z,22.17
2019-05-28T01:15:35.295Z,22.43
2019-05-28T01:18:12.425Z,23.80
2019-05-28T01:20:49.549Z,22.40
2019-05-28T01:23:26.642Z,24.03
2019-05-28T01:26:03.775Z,22.10
2019-05-28T01:28:40.903Z,20.30
2019-05-28T01:31:18.017Z,21.03
2019-05-28T01:33:56.759Z,20.50
2019-05-28T01:36:33.918Z,21.00
2019-05-28T01:39:11.407Z,20.87
2019-05-28T01:41:48.598Z,22.67
2019-05-28T01:44:25.727Z,18.87
2019-05-28T01:47:02.813Z,21.67
2019-05-28T01:49:39.909Z,23.20
2019-05-28T01:52:17.003Z,23.30
2019-05-28T01:54:54.090Z,25.03
2019-05-28T01:57:31.210Z,24.27
2019-05-28T02:00:21.005Z,22.30
2019-05-28T02:02:59.121Z,19.87
2019-05-28T02:05:36.682Z,21.27
2019-05-28T02:08:14.970Z,18.73
2019-05-28T02:10:53.184Z,20.30
2019-05-28T02:13:32.060Z,18.23
2019-05-28T02:16:09.672Z,17.50
2019-05-28T02:18:47.236Z,16.97
2019-05-28T02:21:24.744Z,17.50
2019-05-28T02:24:02.847Z,16.73
2019-05-28T02:26:40.099Z,16.07
2019-05-28T02:29:20.748Z,17.20
2019-05-28T02:31:58.721Z,16.17
2019-05-28T02:34:36.473Z,15.77
2019-05-28T02:37:14.010Z,16.77
2019-05-28T02:39:52.937Z,13.60
2019-05-28T02:42:31.424Z,14.63
2019-05-28T02:45:12.855Z,14.13
2019-05-28T02:47:51.589Z,14.20
2019-05-28T02:50:41.976Z,13.10
2019-05-28T02:53:19.545Z,15.13
2019-05-28T02:55:57.871Z,16.37
2019-05-28T02:58:36.099Z,14.80
2019-05-28T03:01:14.413Z,14.73
2019-05-28T03:03:52.322Z,15.47
2019-05-28T03:06:29.820Z,14.23
2019-05-28T03:09:07.605Z,13.03
2019-05-28T03:11:45.091Z,13.60
2019-05-28T03:14:22.812Z,13.57
2019-05-28T03:17:02.927Z,13.37
2019-05-28T03:19:41.762Z,15.10
2019-05-28T03:22:19.757Z,13.20
2019-05-28T03:24:57.521Z,15.23
2019-05-28T03:27:34.964Z,18.43
2019-05-28T03:30:12.619Z,12.77
2019-05-28T03:32:49.790Z,12.37
2019-05-28T03:35:27.963Z,15.03
2019-05-28T03:38:06.103Z,11.33
2019-05-28T03:40:45.430Z,13.00
2019-05-28T03:43:24.487Z,12.37
2019-05-28T03:46:02.296Z,13.07
2019-05-28T03:48:40.601Z,11.93
2019-05-28T03:51:19.086Z,13.03
2019-05-28T03:54:12.146Z,10.80
2019-05-28T03:56:50.265Z,9.83
2019-05-28T03:59:28.553Z,9.73
2019-05-28T04:02:22.565Z,10.53
2019-05-28T04:04:47.580Z,10.90
2019-05-28T04:07:25.026Z,9.80
2019-05-28T04:10:03.164Z,10.93
2019-05-28T04:12:42.240Z,8.07
2019-05-28T04:15:25.921Z,7.90
2019-05-28T04:18:05.062Z,10.60
2019-05-28T04:20:43.208Z,9.63
2019-05-28T04:23:22.882Z,9.17
2019-05-28T04:26:00.701Z,8.90
2019-05-28T04:28:40.505Z,12.83
2019-05-28T04:31:19.084Z,9.53
2019-05-28T04:33:58.434Z,8.93
2019-05-28T04:36:36.603Z,8.47
2019-05-28T04:39:15.328Z,8.60
2019-05-28T04:41:53.963Z,8.10
2019-05-28T04:44:32.212Z,7.70
2019-05-28T04:47:11.257Z,9.57
2019-05-28T04:49:49.928Z,9.37
2019-05-28T04:52:30.562Z,9.97
2019-05-28T04:55:07.527Z,8.00
2019-05-28T04:57:44.834Z,9.20
2019-05-28T05:00:23.049Z,9.37
2019-05-28T05:03:02.053Z,7.93
2019-05-28T05:05:40.613Z,9.50
2019-05-28T05:08:21.222Z,7.93
2019-05-28T05:10:59.346Z,9.87
2019-05-28T05:13:38.125Z,8.33
2019-05-28T05:16:16.494Z,8.23
2019-05-28T05:18:55.924Z,8.83
2019-05-28T05:21:35.777Z,8.70
2019-05-28T05:24:18.154Z,9.70
2019-05-28T05:26:56.082Z,7.33
2019-05-28T05:29:35.368Z,7.03
2019-05-28T05:32:14.619Z,8.27
2019-05-28T05:34:53.738Z,8.03
2019-05-28T05:37:33.942Z,7.67
2019-05-28T05:40:13.012Z,12.13
2019-05-28T05:43:07.031Z,7.40
2019-05-28T05:45:45.599Z,6.50
2019-05-28T05:48:23.369Z,7.60
2019-05-28T05:51:01.865Z,5.67
2019-05-28T05:53:39.918Z,5.45
2019-05-28T05:56:17.960Z,7.63
2019-05-28T05:58:58.095Z,6.97
2019-05-28T06:01:35.539Z,6.43
2019-05-28T06:04:15.329Z,6.93
2019-05-28T06:06:53.087Z,6.67
2019-05-28T06:09:33.631Z,4.37
2019-05-28T06:12:12.656Z,6.15
2019-05-28T06:14:50.274Z,4.53
2019-05-28T06:17:28.986Z,3.67
2019-05-28T06:20:09.433Z,5.58
2019-05-28T06:22:48.085Z,5.40
2019-05-28T06:25:26.080Z,3.77
2019-05-28T06:28:04.322Z,4.10
2019-05-28T06:30:42.704Z,7.23
2019-05-28T06:33:22.227Z,7.07
2019-05-28T06:39:20.129Z,3.80
2019-05-28T06:41:58.897Z,3.60
2019-05-28T06:44:36.848Z,4.67
2019-05-28T06:47:16.731Z,5.15
2019-05-28T06:49:55.483Z,4.17
2019-05-28T06:52:35.459Z,3.87
2019-05-28T06:55:13.574Z,4.10
2019-05-28T06:57:53.642Z,3.80
2019-05-28T07:00:32.031Z,5.23
2019-05-28T07:03:11.157Z,4.53
2019-05-28T07:06:05.594Z,4.00
2019-05-28T07:08:33.621Z,3.70
2019-05-28T07:11:14.724Z,8.90
2019-05-28T07:13:55.958Z,5.08
2019-05-28T07:16:52.182Z,4.30
2019-05-28T07:19:24.538Z,5.07
2019-05-28T07:21:59.672Z,6.05
2019-05-28T07:24:38.980Z,3.60
2019-05-28T07:27:17.848Z,6.65
2019-05-28T07:29:56.922Z,7.30
2019-05-28T07:32:37.482Z,4.40
2019-05-28T07:35:14.714Z,5.10
2019-05-28T07:37:52.354Z,3.98
2019-05-28T07:40:34.308Z,4.85
2019-05-28T07:43:14.817Z,4.25
2019-05-28T07:45:53.350Z,3.20
2019-05-28T07:48:31.641Z,5.12
2019-05-28T07:51:09.304Z,7.10
2019-05-28T07:53:46.977Z,7.90
2019-05-28T07:56:24.651Z,3.85
2019-05-28T07:59:02.314Z,5.97
2019-05-28T08:01:39.435Z,4.78
2019-05-28T08:04:17.091Z,3.80
2019-05-28T08:06:55.477Z,5.97
2019-05-28T08:09:32.708Z,5.65
2019-05-28T08:12:11.791Z,3.35
2019-05-28T08:14:49.428Z,3.42
2019-05-28T08:17:26.511Z,2.85
2019-05-28T08:20:03.777Z,3.90
2019-05-28T08:22:43.028Z,4.62
2019-05-28T08:25:33.896Z,6.45
2019-05-28T08:28:18.456Z,6.08
2019-05-28T08:30:39.792Z,4.03
2019-05-28T08:33:17.524Z,3.55
2019-05-28T08:35:55.166Z,4.55
2019-05-28T08:38:32.845Z,3.05
2019-05-28T08:41:10.436Z,3.87
2019-05-28T08:43:48.080Z,3.58
2019-05-28T08:46:27.818Z,3.60
2019-05-28T08:49:05.495Z,3.70
2019-05-28T08:51:43.159Z,4.10
2019-05-28T08:54:20.832Z,5.47
2019-05-28T08:56:58.524Z,3.70
2019-05-28T08:59:36.175Z,6.75
2019-05-28T09:02:27.153Z,4.08
2019-05-28T09:04:53.944Z,4.40
2019-05-28T09:07:31.526Z,4.30
2019-05-28T09:10:09.232Z,5.80
2019-05-28T09:12:46.894Z,4.17
2019-05-28T09:15:24.561Z,3.90
2019-05-28T09:18:02.308Z,3.67
2019-05-28T09:20:39.998Z,4.70
2019-05-28T09:23:17.791Z,4.92
2019-05-28T09:25:55.493Z,3.87
2019-05-28T09:28:33.158Z,6.53
2019-05-28T09:31:10.778Z,6.10
2019-05-28T09:33:48.428Z,5.55
2019-05-28T09:36:26.154Z,4.25
2019-05-28T09:39:04.711Z,4.37
2019-05-28T09:41:42.374Z,6.55
2019-05-28T09:44:20.024Z,4.17
2019-05-28T09:46:57.707Z,5.80
2019-05-28T09:49:35.373Z,6.03
2019-05-28T09:52:13.019Z,4.78
2019-05-28T09:54:50.621Z,3.20
2019-05-28T09:57:28.316Z,3.90
2019-05-28T10:00:08.782Z,3.95
2019-05-28T10:02:46.532Z,4.78
2019-05-28T10:05:24.183Z,3.83
2019-05-28T10:08:01.855Z,4.42
2019-05-28T10:10:39.506Z,4.85
2019-05-28T10:13:17.196Z,4.78
2019-05-28T10:15:54.891Z,6.53
2019-05-28T10:18:32.557Z,5.35
2019-05-28T10:21:18.503Z,16.60
2019-05-28T10:23:49.591Z,4.95
2019-05-28T10:26:27.235Z,3.77
2019-05-28T10:29:04.902Z,5.58
2019-05-28T10:31:42.452Z,3.90
2019-05-28T10:34:20.419Z,4.65
2019-05-28T10:36:58.089Z,10.28
2019-05-28T10:39:35.801Z,4.55
2019-05-28T10:42:13.483Z,5.30
2019-05-28T10:44:51.141Z,3.75
2019-05-28T10:47:28.916Z,5.42
2019-05-28T10:50:20.642Z,4.20
2019-05-28T10:52:58.287Z,4.65
2019-05-28T10:55:35.994Z,6.00
2019-05-28T10:58:13.612Z,4.47
2019-05-28T11:00:51.262Z,15.20
2019-05-28T11:03:28.914Z,4.62
2019-05-28T11:06:08.862Z,6.40
2019-05-28T11:08:47.427Z,3.72
2019-05-28T11:11:25.081Z,2.90
2019-05-28T11:14:02.751Z,3.22
2019-05-28T11:16:43.456Z,2.80
2019-05-28T11:19:30.180Z,4.83
2019-05-28T11:22:07.930Z,4.30
2019-05-28T11:24:45.616Z,2.95
2019-05-28T11:27:24.136Z,3.42
2019-05-28T11:30:01.923Z,8.10
2019-05-28T11:32:39.572Z,3.90
2019-05-28T11:35:17.549Z,3.05
2019-05-28T11:37:55.238Z,3.50
2019-05-28T11:40:32.838Z,14.90
2019-05-28T11:43:10.525Z,3.42
2019-05-28T11:45:48.282Z,4.12
2019-05-28T11:48:26.012Z,5.28
2019-05-28T11:51:03.702Z,3.83
2019-05-28T11:53:41.393Z,2.98
2019-05-28T11:56:19.060Z,4.05
2019-05-28T11:58:57.289Z,3.52
2019-05-28T12:01:35.610Z,4.35
2019-05-28T12:04:13.545Z,3.58
2019-05-28T12:06:51.211Z,3.90
2019-05-28T12:09:30.621Z,3.10
2019-05-28T12:12:08.174Z,4.42
2019-05-28T12:14:45.858Z,2.42
2019-05-28T12:17:40.875Z,5.90
2019-05-28T12:20:02.228Z,2.50
2019-05-28T12:22:39.345Z,4.37
2019-05-28T12:25:18.440Z,3.15
2019-05-28T12:27:57.133Z,6.17
2019-05-28T12:30:38.192Z,6.40
2019-05-28T12:33:15.288Z,2.50
2019-05-28T12:35:56.863Z,3.47
2019-05-28T12:38:34.608Z,5.05
2019-05-28T12:41:12.321Z,4.10
2019-05-28T12:43:49.491Z,4.62
2019-05-28T12:46:28.085Z,6.08
2019-05-28T12:49:05.162Z,7.70
2019-05-28T12:51:43.342Z,6.42
2019-05-28T12:54:20.995Z,7.95
2019-05-28T12:56:58.104Z,9.10
2019-05-28T12:59:35.221Z,10.98
2019-05-28T13:02:12.397Z,10.03
2019-05-28T13:04:49.476Z,11.05
2019-05-28T13:07:27.223Z,11.40
2019-05-28T13:10:08.827Z,12.63
2019-05-28T13:12:45.995Z,11.43
2019-05-28T13:15:23.712Z,12.73
2019-05-28T13:18:00.812Z,13.13
2019-05-28T13:20:38.508Z,9.13
2019-05-28T13:23:15.502Z,9.13
2019-05-28T13:25:53.209Z,9.05
2019-05-28T13:28:30.835Z,8.68
2019-05-28T13:31:07.934Z,7.90
2019-05-28T13:33:47.166Z,6.83
2019-05-28T13:36:24.267Z,7.70
2019-05-28T13:39:01.387Z,8.18
2019-05-28T13:41:38.536Z,9.00
2019-05-28T13:44:15.623Z,9.03
2019-05-28T13:46:52.722Z,9.70
2019-05-28T13:49:29.806Z,9.85
2019-05-28T13:52:11.871Z,9.47
2019-05-28T13:54:46.247Z,8.03
2019-05-28T13:57:23.625Z,12.60
2019-05-28T14:00:01.523Z,11.73
2019-05-28T14:02:38.644Z,10.30
2019-05-28T14:05:19.906Z,11.57
2019-05-28T14:07:57.122Z,11.53
2019-05-28T14:10:34.223Z,10.57
2019-05-28T14:13:11.405Z,10.67
2019-05-28T14:15:48.451Z,10.40
2019-05-28T14:18:26.086Z,12.23
2019-05-28T14:21:03.229Z,10.77
2019-05-28T14:23:40.338Z,9.67
2019-05-28T14:26:17.452Z,8.63
2019-05-28T14:28:54.558Z,8.27
2019-05-28T14:31:33.798Z,8.67
2019-05-28T14:34:10.920Z,9.20
2019-05-28T14:36:48.022Z,9.93
2019-05-28T14:39:39.961Z,7.37
2019-05-28T14:42:05.459Z,7.10
2019-05-28T14:44:43.401Z,7.43
2019-05-28T14:47:20.661Z,7.10
2019-05-28T14:49:57.766Z,9.00
2019-05-28T14:52:37.878Z,8.20
2019-05-28T14:55:15.000Z,7.97
2019-05-28T14:57:52.119Z,8.37
2019-05-28T15:00:29.454Z,8.17
2019-05-28T15:03:06.566Z,9.13
2019-05-28T15:05:43.721Z,8.40
2019-05-28T15:08:20.925Z,7.63
2019-05-28T15:10:58.055Z,7.23
2019-05-28T15:13:36.656Z,7.83
2019-05-28T15:16:13.778Z,6.93
2019-05-28T15:18:53.941Z,7.47
2019-05-28T15:21:31.321Z,8.27
2019-05-28T15:24:08.490Z,7.40
2019-05-28T15:26:47.010Z,9.07
2019-05-28T15:29:24.208Z,19.00
2019-05-28T15:32:01.460Z,11.07
2019-05-28T15:34:39.201Z,11.17
2019-05-28T15:37:16.309Z,10.50
2019-05-28T15:39:53.443Z,12.13
2019-05-28T15:42:30.553Z,12.03
2019-05-28T15:45:10.944Z,13.83
2019-05-28T15:47:48.062Z,11.10
2019-05-28T15:50:25.237Z,12.80
2019-05-28T15:53:02.322Z,12.23
2019-05-28T15:55:39.731Z,15.97
2019-05-28T15:58:16.873Z,11.77
2019-05-28T16:00:54.291Z,12.83
2019-05-28T16:03:31.445Z,13.63
2019-05-28T16:06:08.651Z,16.47
2019-05-28T16:08:45.746Z,13.00
2019-05-28T16:11:23.162Z,14.00
2019-05-28T16:14:06.680Z,12.70
2019-05-28T16:16:43.889Z,14.63
2019-05-28T16:19:21.199Z,14.07
2019-05-28T16:21:58.368Z,15.17
2019-05-28T16:24:38.235Z,16.37
2019-05-28T16:27:15.373Z,16.33
2019-05-28T16:29:52.471Z,18.10
2019-05-28T16:32:29.684Z,17.30
2019-05-28T16:35:07.126Z,15.73
2019-05-28T16:37:44.369Z,13.80
2019-05-28T16:40:22.000Z,15.17
2019-05-28T16:42:59.219Z,12.70
2019-05-28T16:45:36.795Z,14.53
2019-05-28T16:48:18.226Z,15.40
2019-05-28T16:50:55.719Z,14.23
2019-05-28T16:53:36.523Z,13.03
2019-05-28T16:56:13.471Z,14.70
2019-05-28T16:58:50.695Z,12.80
2019-05-28T17:01:27.914Z,15.17
2019-05-28T17:04:05.026Z,11.50
2019-05-28T17:06:42.170Z,10.47
2019-05-28T17:09:19.337Z,11.47
2019-05-28T17:11:57.866Z,8.73
2019-05-28T17:14:38.251Z,11.73
2019-05-28T17:17:18.927Z,10.03
2019-05-28T17:19:56.641Z,13.07
2019-05-28T17:22:33.778Z,10.57
2019-05-28T17:25:12.264Z,11.40
2019-05-28T17:27:49.507Z,10.50
2019-05-28T17:30:26.648Z,16.10
2019-05-28T17:33:03.771Z,14.17
2019-05-28T17:35:40.871Z,15.60
2019-05-28T17:38:18.042Z,14.20
2019-05-28T17:40:55.160Z,17.63
2019-05-28T17:43:32.294Z,15.63
2019-05-28T17:46:09.948Z,17.60
2019-05-28T17:48:47.367Z,18.13
2019-05-28T17:51:24.495Z,15.47
2019-05-28T17:54:01.651Z,15.03
2019-05-28T17:56:38.781Z,18.97
2019-05-28T17:59:15.921Z,16.67
2019-05-28T18:01:53.074Z,17.63
2019-05-28T18:04:30.225Z,18.47
2019-05-28T18:07:07.399Z,16.90
2019-05-28T18:09:45.808Z,19.63
2019-05-28T18:12:22.978Z,22.20
2019-05-28T18:15:00.126Z,19.97
2019-05-28T18:17:37.258Z,19.70
2019-05-28T18:20:15.152Z,20.10
2019-05-28T18:22:52.336Z,23.27
2019-05-28T18:25:29.526Z,20.37
2019-05-28T18:28:07.167Z,21.03
2019-05-28T18:30:44.262Z,20.80
2019-05-28T18:33:21.522Z,22.57
2019-05-28T18:35:58.659Z,23.50
2019-05-28T18:38:43.283Z,23.40
2019-05-28T18:41:22.227Z,23.27
2019-05-28T18:44:01.993Z,22.53
2019-05-28T18:46:42.127Z,24.13
2019-05-28T18:49:29.424Z,23.13
2019-05-28T18:52:07.110Z,27.60
2019-05-28T18:54:45.314Z,23.33
2019-05-28T18:57:22.445Z,26.17
2019-05-28T19:00:01.241Z,24.77
2019-05-28T19:02:42.886Z,25.47
2019-05-28T19:05:20.940Z,29.00
2019-05-28T19:07:58.118Z,28.23
2019-05-28T19:10:35.313Z,25.63
2019-05-28T19:13:12.652Z,30.27
2019-05-28T19:15:59.522Z,26.97
2019-05-28T19:18:47.993Z,27.30
2019-05-28T19:21:26.661Z,22.80
2019-05-28T19:24:05.387Z,25.43
2019-05-28T19:26:46.032Z,23.57
2019-05-28T19:29:23.897Z,22.93
2019-05-28T19:32:01.173Z,20.40
2019-05-28T19:34:38.307Z,17.33
2019-05-28T19:37:15.450Z,21.40
2019-05-28T19:39:52.769Z,24.53
2019-05-28T19:42:30.278Z,28.87
2019-05-28T19:45:07.601Z,27.47
2019-05-28T19:47:44.725Z,24.50
2019-05-28T19:50:21.852Z,28.13
2019-05-28T19:52:59.024Z,26.30
2019-05-28T19:55:36.172Z,27.77
2019-05-28T19:58:13.325Z,26.33
2019-05-28T20:00:50.530Z,27.00
2019-05-28T20:03:27.729Z,26.03
2019-05-28T20:06:04.872Z,18.43
2019-05-28T20:08:42.003Z,18.33
2019-05-28T20:11:19.314Z,16.13
2019-05-28T20:14:05.187Z,14.93
2019-05-28T20:16:39.185Z,14.20
2019-05-28T20:19:16.802Z,14.47
2019-05-28T20:21:55.438Z,11.87
2019-05-28T20:24:32.681Z,13.00
2019-05-28T20:27:09.820Z,13.60
2019-05-28T20:29:46.970Z,12.67
2019-05-28T20:32:24.024Z,13.97
2019-05-28T20:35:01.453Z,13.77
2019-05-28T20:37:38.750Z,13.03
2019-05-28T20:40:16.836Z,17.33
2019-05-28T20:42:54.057Z,16.37
2019-05-28T20:45:31.503Z,18.90
2019-05-28T20:48:08.706Z,14.63
2019-05-28T20:50:45.835Z,14.53
2019-05-28T20:53:36.375Z,15.43
2019-05-28T20:56:12.069Z,17.87
2019-05-28T20:58:51.825Z,13.57
2019-05-28T21:01:32.016Z,18.23
2019-05-28T21:04:09.300Z,16.23
2019-05-28T21:06:47.922Z,14.27
2019-05-28T21:09:25.248Z,12.93
2019-05-28T21:12:02.458Z,12.23
2019-05-28T21:14:39.685Z,11.50
2019-05-28T21:17:16.813Z,14.30
2019-05-28T21:19:55.281Z,13.60
2019-05-28T21:22:39.499Z,11.53
2019-05-28T21:25:16.648Z,13.60
2019-05-28T21:27:54.384Z,14.87
2019-05-28T21:30:33.339Z,15.20
2019-05-28T21:33:10.547Z,15.43
2019-05-28T21:35:48.827Z,13.50
2019-05-28T21:38:25.947Z,14.43
2019-05-28T21:41:03.202Z,11.33
2019-05-28T21:43:40.488Z,16.60
2019-05-28T21:46:17.794Z,16.50
2019-05-28T21:48:56.541Z,16.60
2019-05-28T21:51:33.996Z,14.17
2019-05-28T21:54:11.129Z,15.67
2019-05-28T21:56:48.249Z,16.53
2019-05-28T21:59:25.835Z,18.00
2019-05-28T22:02:04.656Z,16.60
2019-05-28T22:04:41.702Z,15.40
2019-05-28T22:07:19.576Z,19.80
2019-05-28T22:09:57.682Z,16.20
2019-05-28T22:12:34.917Z,16.23
2019-05-28T22:15:12.132Z,12.83
2019-05-28T22:17:49.279Z,15.60
2019-05-28T22:20:26.404Z,14.43
2019-05-28T22:23:05.880Z,11.27
2019-05-28T22:25:43.004Z,11.23
2019-05-28T22:28:20.128Z,12.73
2019-05-28T22:30:57.721Z,14.30
2019-05-28T22:33:34.917Z,13.50
2019-05-28T22:36:12.065Z,12.53
2019-05-28T22:39:08.922Z,13.50
2019-05-28T22:41:46.365Z,16.00
2019-05-28T22:44:23.515Z,11.83
2019-05-28T22:47:01.063Z,14.00
2019-05-28T22:49:38.181Z,14.10
2019-05-28T22:52:15.303Z,14.30
2019-05-28T22:54:52.459Z,13.97
2019-05-28T22:57:29.564Z,17.83
2019-05-28T23:00:18.918Z,16.13
2019-05-28T23:02:56.281Z,17.53
2019-05-28T23:05:33.903Z,17.30
2019-05-28T23:08:11.042Z,15.83
2019-05-28T23:10:48.146Z,15.83
2019-05-28T23:13:25.772Z,16.23
2019-05-28T23:16:04.250Z,13.20
2019-05-28T23:18:41.451Z,13.20
2019-05-28T23:21:18.573Z,10.80
2019-05-28T23:23:55.707Z,12.43
2019-05-28T23:26:32.817Z,11.47
2019-05-28T23:29:09.925Z,13.60
2019-05-28T23:31:47.295Z,10.87
2019-05-28T23:34:24.433Z,11.90
2019-05-28T23:37:04.313Z,12.60
2019-05-28T23:39:40.675Z,11.80
2019-05-28T23:42:18.020Z,12.57
2019-05-28T23:44:56.122Z,15.03
2019-05-28T23:47:33.268Z,12.47
2019-05-28T23:50:14.458Z,13.43
2019-05-28T23:52:49.236Z,15.80
2019-05-28T23:55:26.368Z,12.73
2019-05-28T23:58:03.483Z,14.80
